Time;durP1;ratioP1;P1;durP2;ratioP2;P2;SDS_P1;SDS_P2;PMS_P1;PMS_P2;Temp;Humidity;BMP_temperature;BMP_pressure;BME280_temperature;BME280_humidity;BME280_pressure;Samples;Min_cycle;Max_cycle;Signal;HPM_P1;HPM_P2
2022/06/07 00:01:11;;;;;;;1.98;1.10;;;;;;;17.26;54.18;100280.97;5033142;28;20209;-67
2022/06/07 00:03:37;;;;;;;2.65;1.02;;;;;;;17.26;54.57;100277.44;5035989;28;20069;-66
2022/06/07 00:06:04;;;;;;;2.03;0.90;;;;;;;17.28;54.76;100278.16;5021768;28;20056;-66
2022/06/07 00:08:31;;;;;;;1.90;0.80;;;;;;;17.21;54.58;100260.88;5034062;28;20049;-66
2022/06/07 00:10:58;;;;;;;5.45;1.33;;;;;;;17.28;55.01;100280.84;5035798;28;20784;-67
2022/06/07 00:13:25;;;;;;;2.75;0.90;;;;;;;17.18;54.69;100272.66;5034258;28;20049;-66
2022/06/07 00:15:51;;;;;;;0.88;0.85;;;;;;;17.16;55.24;100275.44;5036238;28;20076;-66
2022/06/07 00:18:18;;;;;;;1.05;0.95;;;;;;;17.05;54.87;100256.69;5036083;28;20045;-66
2022/06/07 00:20:45;;;;;;;1.92;0.93;;;;;;;17.10;55.40;100275.91;5034848;28;20851;-67
2022/06/07 00:23:14;;;;;;;2.08;0.98;;;;;;;17.08;55.45;100285.03;5038696;28;20072;-65
2022/06/07 00:25:43;;;;;;;1.70;1.00;;;;;;;17.03;56.06;100277.34;5039357;28;20103;-65
2022/06/07 00:28:10;;;;;;;1.15;1.00;;;;;;;17.02;56.00;100289.00;5035494;28;20049;-67
2022/06/07 00:30:37;;;;;;;1.00;0.73;;;;;;;16.86;56.22;100267.06;5036714;28;20143;-66
2022/06/07 00:33:04;;;;;;;1.60;1.15;;;;;;;16.98;56.39;100282.22;5038463;28;20057;-66
2022/06/07 00:35:31;;;;;;;1.58;0.80;;;;;;;16.96;56.60;100275.25;5014665;28;20064;-66
2022/06/07 00:37:58;;;;;;;1.13;0.90;;;;;;;17.01;56.62;100284.63;5034677;28;20106;-66
2022/06/07 00:40:25;;;;;;;1.60;0.90;;;;;;;17.01;56.91;100279.28;5035055;28;20052;-68
2022/06/07 00:42:51;;;;;;;2.42;1.10;;;;;;;17.04;56.82;100279.06;5036098;28;22700;-65
2022/06/07 00:45:26;;;;;;;1.73;0.93;;;;;;;17.09;57.17;100284.91;5035334;28;20072;-66
2022/06/07 00:47:53;;;;;;;2.55;1.10;;;;;;;17.08;57.35;100277.00;5033561;28;20633;-65
2022/06/07 00:50:38;;;;;;;2.92;1.10;;;;;;;17.14;57.48;100280.09;5036486;28;26036;-65
2022/06/07 00:53:15;;;;;;;1.17;1.08;;;;;;;17.15;57.74;100278.25;5036465;28;20124;-66
2022/06/07 00:55:42;;;;;;;2.13;0.88;;;;;;;17.18;57.96;100267.28;5035958;28;20046;-65
2022/06/07 00:58:08;;;;;;;1.35;1.13;;;;;;;17.17;57.94;100271.78;5034298;28;20059;-65
2022/06/07 01:00:35;;;;;;;2.08;0.90;;;;;;;17.21;58.02;100267.06;5034985;28;20428;-68
2022/06/07 01:03:01;;;;;;;1.42;1.20;;;;;;;17.27;57.96;100271.09;5034814;28;20072;-68
2022/06/07 01:05:28;;;;;;;1.17;1.08;;;;;;;17.26;58.35;100262.22;5032824;28;20139;-69
2022/06/07 01:10:43;;;;;;;1.40;1.13;;;;;;;17.16;58.35;100256.72;5034845;28;20041;-65
2022/06/07 01:13:11;;;;;;;1.35;1.10;;;;;;;17.30;58.50;100273.56;5035139;28;20753;-66
2022/06/07 01:15:38;;;;;;;1.80;1.20;;;;;;;17.24;58.81;100280.22;5034193;28;20497;-66
2022/06/07 01:18:05;;;;;;;2.95;1.20;;;;;;;17.21;58.98;100271.56;5031315;28;20134;-66
2022/06/07 01:20:32;;;;;;;2.47;1.02;;;;;;;17.19;59.18;100272.53;5032038;28;20086;-65
2022/06/07 01:22:58;;;;;;;4.45;1.02;;;;;;;17.19;58.85;100280.56;5034503;28;20081;-66
2022/06/07 01:25:25;;;;;;;2.03;1.15;;;;;;;17.17;59.10;100271.78;5034920;28;20071;-66
2022/06/07 01:27:51;;;;;;;2.50;1.05;;;;;;;17.19;58.97;100279.72;5034450;28;20122;-66
2022/06/07 01:30:18;;;;;;;3.95;1.30;;;;;;;17.21;59.27;100268.88;5034665;28;20053;-66
2022/06/07 01:32:45;;;;;;;4.45;1.17;;;;;;;17.15;59.32;100251.50;5034824;28;20899;-66
2022/06/07 01:35:12;;;;;;;1.77;1.10;;;;;;;17.22;59.49;100262.56;5033884;28;20079;-66
2022/06/07 01:37:39;;;;;;;2.65;1.00;;;;;;;17.19;59.06;100258.31;5037817;28;20108;-66
2022/06/07 01:42:52;;;;;;;1.30;0.90;;;;;;;17.22;59.24;100270.59;5037394;28;20111;-67
2022/06/07 01:45:20;;;;;;;1.27;0.90;;;;;;;17.21;59.52;100261.72;5032235;28;20037;-65
2022/06/07 01:47:46;;;;;;;1.40;1.10;;;;;;;17.17;59.66;100254.88;5035127;28;20403;-66
2022/06/07 01:50:13;;;;;;;4.25;1.20;;;;;;;17.14;59.55;100261.34;5032803;28;20056;-64
2022/06/07 01:52:40;;;;;;;1.75;1.00;;;;;;;17.03;60.04;100247.91;5033042;28;20045;-66
2022/06/07 01:55:07;;;;;;;3.28;0.90;;;;;;;17.11;60.21;100263.41;5034255;28;20106;-66
2022/06/07 01:57:34;;;;;;;4.10;1.00;;;;;;;16.99;60.01;100243.78;5032130;28;20049;-65
2022/06/07 02:00:01;;;;;;;1.38;1.00;;;;;;;17.11;60.28;100266.06;5035626;28;20565;-65
2022/06/07 02:02:27;;;;;;;2.40;1.10;;;;;;;17.07;60.29;100252.06;5031858;28;20045;-66
2022/06/07 02:04:56;;;;;;;3.30;1.27;;;;;;;17.06;60.10;100250.38;5033873;28;20427;-65
2022/06/07 02:07:24;;;;;;;2.47;1.05;;;;;;;17.08;60.27;100245.75;5031241;28;20049;-65
2022/06/07 02:09:50;;;;;;;3.53;1.10;;;;;;;16.99;60.16;100230.41;5035448;28;20138;-66
2022/06/07 02:12:17;;;;;;;1.10;1.02;;;;;;;17.10;60.29;100249.16;5034287;28;20108;-65
2022/06/07 02:14:44;;;;;;;1.58;1.00;;;;;;;17.11;60.38;100253.56;5033057;28;20139;-66
2022/06/07 02:17:10;;;;;;;1.63;1.00;;;;;;;17.14;60.28;100249.78;5032570;28;20092;-65
2022/06/07 02:19:37;;;;;;;1.55;1.00;;;;;;;17.10;60.77;100243.81;5034642;28;20511;-65
2022/06/07 02:22:04;;;;;;;2.58;1.10;;;;;;;17.07;60.75;100249.41;5031769;28;20086;-65
2022/06/07 02:24:31;;;;;;;1.63;0.90;;;;;;;17.05;60.85;100245.97;5034070;28;20156;-65
2022/06/07 02:27:04;;;;;;;2.88;0.90;;;;;;;17.06;60.83;100250.38;5033540;28;20060;-66
2022/06/07 02:29:39;;;;;;;3.05;1.00;;;;;;;17.06;60.59;100245.00;5028382;28;20041;-67
2022/06/07 02:32:12;;;;;;;1.35;0.88;;;;;;;17.05;60.61;100245.97;5031386;28;20124;-65
2022/06/07 02:34:41;;;;;;;8.85;1.42;;;;;;;17.06;60.74;100246.84;5038250;28;20052;-65
2022/06/07 02:37:09;;;;;;;1.70;1.00;;;;;;;17.09;60.70;100241.25;5030787;28;20069;-66
2022/06/07 02:39:37;;;;;;;2.40;0.85;;;;;;;17.07;60.66;100237.84;5032030;28;20584;-66
2022/06/07 02:42:06;;;;;;;1.50;1.05;;;;;;;17.02;60.92;100240.00;5032951;28;20629;-66
2022/06/07 02:44:33;;;;;;;2.22;1.08;;;;;;;16.96;61.16;100235.13;5032395;28;20127;-67
2022/06/07 02:47:00;;;;;;;3.78;1.10;;;;;;;16.88;61.46;100230.34;5030745;28;20049;-66
2022/06/07 02:49:27;;;;;;;3.88;1.13;;;;;;;16.82;61.32;100226.34;5033061;28;20191;-65
2022/06/07 02:51:54;;;;;;;1.65;1.15;;;;;;;16.80;61.70;100233.63;5033022;28;20511;-69
2022/06/07 02:54:35;;;;;;;2.50;0.93;;;;;;;16.75;62.03;100243.81;5033242;28;20362;-66
2022/06/07 02:57:02;;;;;;;1.20;1.10;;;;;;;16.68;61.93;100237.22;5032728;28;20877;-66
2022/06/07 02:59:28;;;;;;;1.50;1.02;;;;;;;16.57;62.45;100230.91;5033304;28;20045;-66
2022/06/07 03:01:55;;;;;;;1.73;1.10;;;;;;;16.45;63.29;100233.53;5029545;28;20555;-65
2022/06/07 03:04:22;;;;;;;3.22;1.25;;;;;;;16.32;63.46;100224.72;5036170;28;20358;-66
2022/06/07 03:06:48;;;;;;;3.72;1.15;;;;;;;16.27;63.81;100228.69;5030041;28;20151;-66
2022/06/07 03:09:15;;;;;;;3.42;1.05;;;;;;;16.15;64.21;100222.44;5030611;28;20147;-66
2022/06/07 03:11:42;;;;;;;2.03;1.23;;;;;;;16.08;64.70;100226.50;5034061;28;20040;-66
2022/06/07 03:14:10;;;;;;;1.75;1.25;;;;;;;15.90;65.02;100207.31;5030340;28;20560;-65
2022/06/07 03:16:37;;;;;;;3.25;0.93;;;;;;;15.96;65.52;100230.91;5033891;28;20068;-67
2022/06/07 03:19:04;;;;;;;2.78;1.20;;;;;;;15.81;65.94;100215.13;5011076;28;20551;-66
2022/06/07 03:21:30;;;;;;;2.40;1.25;;;;;;;15.95;66.12;100233.69;5038648;28;20037;-66
2022/06/07 03:23:57;;;;;;;1.67;1.08;;;;;;;15.98;65.82;100233.47;5040074;28;20061;-66
2022/06/07 03:26:24;;;;;;;1.48;1.30;;;;;;;15.91;65.62;100203.66;5037688;28;20176;-65
2022/06/07 03:28:50;;;;;;;2.55;1.10;;;;;;;16.06;65.52;100233.75;5038200;28;20084;-67
2022/06/07 03:31:18;;;;;;;2.53;1.17;;;;;;;16.06;65.80;100244.44;5040112;28;20140;-67
2022/06/07 03:33:47;;;;;;;1.33;1.20;;;;;;;16.02;65.90;100234.97;5035242;28;20071;-65
2022/06/07 03:36:26;;;;;;;3.35;1.10;;;;;;;16.09;65.96;100245.09;5039689;28;20055;-66
2022/06/07 03:38:55;;;;;;;2.08;1.25;;;;;;;16.19;65.20;100245.28;5036832;28;20642;-66
2022/06/07 03:41:25;;;;;;;2.22;0.90;;;;;;;16.25;65.10;100239.47;5035891;28;20177;-66
2022/06/07 03:43:52;;;;;;;3.17;1.40;;;;;;;16.27;65.18;100242.91;5042258;28;20134;-66
2022/06/07 03:46:23;;;;;;;3.65;1.40;;;;;;;16.34;65.44;100238.81;5035372;28;20048;-66
2022/06/07 03:48:51;;;;;;;3.92;1.38;;;;;;;16.41;65.01;100233.88;5019061;28;20106;-66
2022/06/07 03:51:21;;;;;;;2.22;1.13;;;;;;;16.52;64.43;100241.97;5039229;28;20056;-66
2022/06/07 03:53:47;;;;;;;3.63;1.30;;;;;;;16.59;64.30;100245.88;5036692;28;20341;-65
2022/06/07 03:56:16;;;;;;;1.92;1.20;;;;;;;16.69;64.12;100252.28;5037402;28;20524;-67
2022/06/07 03:58:43;;;;;;;4.25;1.40;;;;;;;16.72;64.14;100248.53;5037359;28;20129;-67
2022/06/07 04:01:15;;;;;;;4.95;1.25;;;;;;;16.71;64.02;100234.28;5036503;28;20484;-65
2022/06/07 04:03:44;;;;;;;1.30;1.20;;;;;;;16.72;63.80;100236.00;5039168;28;20453;-66
2022/06/07 04:06:24;;;;;;;2.78;1.30;;;;;;;16.71;63.57;100245.00;5034738;28;20131;-66
2022/06/07 04:08:51;;;;;;;1.35;1.23;;;;;;;16.61;63.95;100246.63;5036166;28;20053;-66
2022/06/07 04:11:20;;;;;;;2.58;1.05;;;;;;;16.55;64.19;100247.06;5041500;28;20106;-66
2022/06/07 04:13:48;;;;;;;1.67;1.48;;;;;;;16.40;64.92;100238.34;5033852;28;20084;-66
2022/06/07 04:16:17;;;;;;;3.33;1.40;;;;;;;16.33;65.39;100253.16;5037082;28;20512;-67
2022/06/07 04:18:44;;;;;;;2.50;1.38;;;;;;;16.27;65.83;100244.72;5042070;28;20044;-65
2022/06/07 04:21:13;;;;;;;2.70;1.50;;;;;;;16.30;65.84;100236.47;5036153;28;20052;-65
2022/06/07 04:23:40;;;;;;;1.45;1.30;;;;;;;16.42;65.68;100247.13;5039814;28;20049;-65
2022/06/07 04:26:23;;;;;;;3.72;1.38;;;;;;;16.55;65.31;100249.75;5037932;28;20052;-67
2022/06/07 04:28:49;;;;;;;3.30;1.40;;;;;;;16.65;64.68;100249.97;5037902;28;20424;-66
2022/06/07 04:31:19;;;;;;;2.00;1.25;;;;;;;16.71;64.62;100255.69;5035014;28;20045;-66
2022/06/07 04:33:46;;;;;;;4.30;1.35;;;;;;;16.73;64.29;100256.44;5033758;28;20134;-65
2022/06/07 04:36:18;;;;;;;4.20;1.77;;;;;;;16.75;64.59;100261.66;5031531;28;20048;-66
2022/06/07 04:38:46;;;;;;;4.50;1.40;;;;;;;16.79;63.87;100255.13;5035063;28;20150;-66
2022/06/07 04:41:14;;;;;;;1.85;1.40;;;;;;;16.82;63.60;100260.25;5033169;28;20094;-66
2022/06/07 04:43:51;;;;;;;1.83;1.30;;;;;;;16.92;63.56;100263.94;5032725;28;20061;-65
2022/06/07 04:46:19;;;;;;;1.58;1.15;;;;;;;17.04;63.04;100263.00;5038866;28;20710;-66
2022/06/07 04:48:47;;;;;;;1.35;1.23;;;;;;;17.15;62.40;100263.06;5036561;28;20119;-66
2022/06/07 04:51:18;;;;;;;3.28;1.20;;;;;;;17.22;62.23;100265.25;5034126;28;20049;-66
2022/06/07 04:53:47;;;;;;;2.03;1.23;;;;;;;17.29;61.47;100274.53;5034154;28;20056;-66
2022/06/07 04:56:23;;;;;;;1.80;1.65;;;;;;;17.28;61.63;100267.47;5030218;28;20107;-66
2022/06/07 04:58:50;;;;;;;1.80;1.30;;;;;;;17.26;62.32;100266.72;5032634;28;20140;-67
2022/06/07 05:01:22;;;;;;;1.30;1.20;;;;;;;17.36;62.00;100273.06;5030996;28;20513;-66
2022/06/07 05:03:49;;;;;;;4.00;1.38;;;;;;;17.35;61.38;100263.31;5032807;28;20065;-65
2022/06/07 05:06:34;;;;;;;4.90;1.20;;;;;;;17.33;62.15;100262.59;5033374;28;20055;-66
2022/06/07 05:09:17;;;;;;;2.97;1.02;;;;;;;17.37;61.11;100259.56;5030410;28;20057;-66
2022/06/07 05:11:52;;;;;;;2.67;1.33;;;;;;;17.58;60.69;100286.50;5035210;28;20045;-65
2022/06/07 05:14:19;;;;;;;1.30;1.20;;;;;;;17.59;61.28;100282.00;5028563;28;20049;-65
2022/06/07 05:16:48;;;;;;;2.55;1.30;;;;;;;17.66;60.62;100280.56;5033010;28;20056;-66
2022/06/07 05:19:14;;;;;;;2.13;1.30;;;;;;;17.71;60.40;100284.59;5034340;28;25636;-66
2022/06/07 05:21:42;;;;;;;2.72;1.30;;;;;;;17.73;60.23;100290.69;5033387;28;20037;-68
2022/06/07 05:24:09;;;;;;;4.22;1.48;;;;;;;17.77;60.52;100289.50;5030635;28;20049;-66
2022/06/07 05:26:47;;;;;;;3.50;1.20;;;;;;;17.87;59.91;100292.28;5038996;28;20052;-65
2022/06/07 05:29:25;;;;;;;2.60;1.60;;;;;;;17.77;60.61;100292.19;5038703;28;20508;-66
2022/06/07 05:31:52;;;;;;;3.70;1.42;;;;;;;17.43;61.31;100267.13;5036927;28;20045;-66
2022/06/07 05:34:18;;;;;;;3.20;1.40;;;;;;;17.21;62.29;100275.09;5037543;28;20044;-67
2022/06/07 05:36:45;;;;;;;5.22;1.77;;;;;;;17.19;63.12;100279.72;5038439;28;20045;-67
2022/06/07 05:39:21;;;;;;;4.35;1.52;;;;;;;17.23;63.30;100285.69;5034167;28;20135;-66
2022/06/07 05:41:48;;;;;;;3.08;1.38;;;;;;;17.28;62.80;100276.34;5036880;28;20475;-67
2022/06/07 05:44:15;;;;;;;2.30;1.20;;;;;;;17.50;62.12;100288.91;5037234;28;20615;-67
2022/06/07 05:46:43;;;;;;;3.08;1.30;;;;;;;17.59;61.11;100290.91;5033816;28;20076;-65
2022/06/07 05:49:10;;;;;;;1.75;1.27;;;;;;;17.66;60.81;100281.44;5037781;28;20049;-67
2022/06/07 05:51:38;;;;;;;3.80;1.60;;;;;;;17.84;60.31;100284.50;5036743;28;20266;-66
2022/06/07 05:54:06;;;;;;;2.60;1.38;;;;;;;17.94;59.71;100271.25;5039030;28;20493;-66
2022/06/07 05:56:33;;;;;;;3.13;1.38;;;;;;;18.20;58.93;100291.44;5035196;28;20053;-67
2022/06/07 05:59:00;;;;;;;2.58;1.10;;;;;;;18.34;58.09;100285.81;5038349;28;20045;-66
2022/06/07 06:01:27;;;;;;;2.42;1.15;;;;;;;18.41;57.49;100286.19;5043472;28;20651;-67
2022/06/07 06:03:55;;;;;;;3.58;1.10;;;;;;;18.53;57.20;100286.03;5043810;28;20071;-66
2022/06/07 06:06:26;;;;;;;2.00;1.25;;;;;;;18.60;56.50;100289.09;5045435;28;20480;-65
2022/06/07 06:11:38;;;;;;;3.55;1.23;;;;;;;18.25;58.05;100288.41;5039760;28;20129;-66
2022/06/07 06:14:04;;;;;;;2.50;1.13;;;;;;;18.07;58.76;100282.69;5039981;28;20132;-66
2022/06/07 06:16:31;;;;;;;3.50;1.38;;;;;;;18.39;58.26;100299.72;5044192;28;20053;-65
2022/06/07 06:18:59;;;;;;;2.85;1.35;;;;;;;18.55;57.17;100292.13;5036391;28;20498;-66
2022/06/07 06:21:32;;;;;;;2.35;1.15;;;;;;;18.66;57.23;100291.28;5034092;28;20568;-66
2022/06/07 06:23:59;;;;;;;1.38;0.95;;;;;;;18.82;56.69;100291.72;5032795;28;20546;-66
2022/06/07 06:26:27;;;;;;;2.35;1.15;;;;;;;18.95;56.12;100278.13;5031248;28;20094;-66
2022/06/07 06:28:55;;;;;;;3.75;1.25;;;;;;;18.84;56.38;100286.22;5035049;28;20049;-66
2022/06/07 06:31:22;;;;;;;2.50;1.27;;;;;;;18.93;56.25;100282.75;5032969;28;20127;-66
2022/06/07 06:33:52;;;;;;;3.25;1.30;;;;;;;19.46;55.09;100285.44;5031104;28;20761;-66
2022/06/07 06:36:24;;;;;;;3.78;1.15;;;;;;;20.14;53.38;100270.56;5035452;28;20131;-66
2022/06/07 06:38:51;;;;;;;1.70;1.20;;;;;;;20.70;50.30;100252.03;5035241;28;20516;-66
2022/06/07 06:41:22;;;;;;;2.50;1.23;;;;;;;20.90;50.97;100275.28;5035569;28;20072;-66
2022/06/07 06:43:50;;;;;;;2.85;1.25;;;;;;;20.55;50.82;100270.41;5031528;28;20068;-66
2022/06/07 06:46:22;;;;;;;2.65;1.30;;;;;;;20.20;51.66;100257.41;5031570;28;20064;-67
2022/06/07 06:48:50;;;;;;;4.32;1.30;;;;;;;20.35;52.38;100273.16;5033394;28;20073;-67
2022/06/07 06:51:20;;;;;;;2.38;1.02;;;;;;;20.45;51.68;100276.75;5033262;28;20545;-66
2022/06/07 06:53:47;;;;;;;5.03;1.38;;;;;;;20.24;52.67;100271.44;5034804;28;20072;-67
2022/06/07 06:56:20;;;;;;;3.53;1.40;;;;;;;20.52;51.83;100272.50;5034646;28;20409;-67
2022/06/07 06:58:49;;;;;;;3.63;1.20;;;;;;;20.07;52.38;100278.31;5036169;28;20053;-66
2022/06/07 07:01:19;;;;;;;1.80;1.08;;;;;;;19.59;53.12;100278.06;5034120;28;20134;-68
2022/06/07 07:03:46;;;;;;;3.55;1.13;;;;;;;19.25;53.86;100272.84;5032693;28;20083;-66
2022/06/07 07:06:15;;;;;;;1.98;0.98;;;;;;;18.93;54.76;100255.94;5029875;28;20098;-66
2022/06/07 07:08:44;;;;;;;4.25;1.40;;;;;;;19.09;55.17;100276.97;5034216;28;20119;-66
2022/06/07 07:11:13;;;;;;;2.45;1.05;;;;;;;19.27;56.13;100259.31;5038885;28;20051;-66
2022/06/07 07:13:40;;;;;;;2.85;1.17;;;;;;;19.78;54.62;100283.53;5030087;28;20143;-66
2022/06/07 07:16:09;;;;;;;2.92;1.13;;;;;;;20.25;53.85;100282.06;5036519;28;20048;-65
2022/06/07 07:18:36;;;;;;;2.05;1.23;;;;;;;20.52;51.99;100265.31;5036145;28;20049;-65
2022/06/07 07:21:05;;;;;;;2.55;1.20;;;;;;;20.91;51.38;100276.13;5033051;28;20041;-66
2022/06/07 07:23:32;;;;;;;3.88;1.45;;;;;;;21.21;49.72;100273.31;5035524;28;20045;-67
2022/06/07 07:26:07;;;;;;;3.78;1.10;;;;;;;21.61;49.22;100264.16;5033481;28;20052;-66
2022/06/07 07:28:35;;;;;;;3.90;1.20;;;;;;;21.55;47.99;100264.75;5033030;28;20041;-68
2022/06/07 07:31:05;;;;;;;1.55;1.00;;;;;;;21.40;48.80;100271.59;5032792;28;20078;-66
2022/06/07 07:33:33;;;;;;;2.67;1.20;;;;;;;21.54;48.14;100271.16;5033455;28;20063;-67
2022/06/07 07:36:01;;;;;;;2.83;0.90;;;;;;;21.66;47.80;100267.28;5035070;28;20057;-67
2022/06/07 07:38:28;;;;;;;3.53;1.00;;;;;;;21.72;47.00;100234.38;5034579;28;20052;-68
2022/06/07 07:40:54;;;;;;;3.22;1.27;;;;;;;21.88;46.74;100261.50;5035783;28;20582;-66
2022/06/07 07:43:21;;;;;;;2.17;1.10;;;;;;;22.46;45.21;100253.19;5035681;28;20108;-66
2022/06/07 07:45:55;;;;;;;2.17;1.58;;;;;;;23.04;43.48;100250.94;5034179;28;20099;-67
2022/06/07 07:48:23;;;;;;;1.83;1.00;;;;;;;23.30;43.94;100250.97;5034628;28;21906;-67
2022/06/07 07:50:50;;;;;;;2.17;0.80;;;;;;;23.30;42.74;100253.66;5038110;28;20076;-67
2022/06/07 07:53:18;;;;;;;1.60;0.80;;;;;;;23.16;43.53;100248.81;5034978;28;20052;-67
2022/06/07 07:55:46;;;;;;;3.40;1.00;;;;;;;23.51;41.96;100258.75;5036587;28;20052;-67
2022/06/07 07:58:14;;;;;;;1.60;0.70;;;;;;;23.62;40.71;100244.97;5031545;28;20059;-67
2022/06/07 08:00:46;;;;;;;3.65;0.70;;;;;;;23.15;39.89;100247.13;5033335;28;20620;-67
2022/06/07 08:03:14;;;;;;;1.70;0.50;;;;;;;23.39;40.02;100244.63;5036912;28;20076;-67
2022/06/07 08:05:41;;;;;;;1.95;0.60;;;;;;;23.87;38.20;100248.69;5035525;28;20106;-67
2022/06/07 08:08:09;;;;;;;2.72;0.60;;;;;;;23.90;38.00;100234.84;5034177;28;20080;-67
2022/06/07 08:10:36;;;;;;;4.05;1.10;;;;;;;23.34;39.32;100252.34;5036556;28;20057;-66
2022/06/07 08:13:04;;;;;;;2.65;0.43;;;;;;;22.86;38.22;100244.69;5039455;28;20131;-67
2022/06/07 08:15:33;;;;;;;1.48;0.68;;;;;;;22.59;39.87;100256.38;5036651;28;20084;-68
2022/06/07 08:18:04;;;;;;;1.00;0.60;;;;;;;22.79;40.38;100235.53;5037433;28;20049;-67
2022/06/07 08:20:37;;;;;;;1.40;0.63;;;;;;;22.88;39.27;100222.94;5039939;28;20617;-68
2022/06/07 08:23:07;;;;;;;1.83;0.90;;;;;;;22.73;39.09;100225.28;5038425;28;20140;-67
2022/06/07 08:25:34;;;;;;;2.47;0.90;;;;;;;22.65;39.06;100236.88;5035743;28;20049;-67
2022/06/07 08:28:03;;;;;;;0.80;0.57;;;;;;;23.10;36.20;100230.56;5037099;28;20057;-66
2022/06/07 08:30:30;;;;;;;2.53;0.40;;;;;;;23.55;35.98;100232.25;5036797;28;20049;-67
2022/06/07 08:32:57;;;;;;;3.53;0.65;;;;;;;23.15;35.19;100239.03;5036093;28;20134;-66
2022/06/07 08:38:09;;;;;;;1.55;0.52;;;;;;;22.68;36.18;100214.09;5036406;28;22361;-67
2022/06/07 08:40:42;;;;;;;2.55;0.70;;;;;;;22.97;36.30;100222.00;5036178;28;20167;-67
2022/06/07 08:43:19;;;;;;;2.47;0.40;;;;;;;23.72;34.68;100228.66;5038607;28;20045;-67
2022/06/07 08:45:47;;;;;;;1.35;0.38;;;;;;;23.76;35.17;100220.06;5038433;28;20065;-68
2022/06/07 08:48:18;;;;;;;2.10;0.50;;;;;;;23.71;35.12;100232.38;5035705;28;20099;-68
2022/06/07 08:51:06;;;;;;;5.13;0.40;;;;;;;23.24;35.31;100240.81;5038024;28;20056;-66
2022/06/07 08:53:41;;;;;;;3.38;0.50;;;;;;;23.00;34.46;100238.72;5021907;28;20059;-67
2022/06/07 08:56:16;;;;;;;2.15;0.40;;;;;;;22.67;35.57;100242.94;5034875;28;20484;-67
2022/06/07 08:58:49;;;;;;;3.38;0.35;;;;;;;22.23;36.56;100244.66;5051467;28;20061;-66
2022/06/07 09:01:32;;;;;;;1.85;0.30;;;;;;;22.24;36.87;100240.09;5036937;28;20092;-67
2022/06/07 09:04:18;;;;;;;1.00;0.40;;;;;;;22.18;37.08;100229.94;5035278;28;20550;-66
2022/06/07 09:06:48;;;;;;;5.10;0.40;;;;;;;22.28;35.96;100236.09;4988245;28;20056;-66
2022/06/07 09:09:21;;;;;;;1.25;0.40;;;;;;;22.00;37.15;100227.19;5002338;28;20046;-67
2022/06/07 09:12:14;;;;;;;0.68;0.40;;;;;;;21.87;37.51;100229.34;4998371;28;20449;-67
2022/06/07 09:14:53;;;;;;;1.17;0.50;;;;;;;22.14;37.90;100223.13;4998475;28;20050;-67
2022/06/07 09:17:21;;;;;;;0.75;0.50;;;;;;;22.19;37.09;100204.66;5001174;28;20104;-68
2022/06/07 09:19:49;;;;;;;2.55;0.70;;;;;;;22.43;37.37;100213.00;5008097;28;20077;-67
2022/06/07 09:22:26;;;;;;;2.35;0.80;;;;;;;22.19;36.92;100191.19;5005227;28;20504;-67
2022/06/07 09:25:06;;;;;;;1.73;0.65;;;;;;;22.28;37.03;100210.00;5008268;28;20047;-67
2022/06/07 09:27:34;;;;;;;1.55;0.50;;;;;;;22.12;37.91;100204.41;5003985;28;20552;-66
2022/06/07 09:30:20;;;;;;;9.05;6.63;;;;;;;22.12;38.16;100187.38;5003141;28;20053;-66
2022/06/07 09:32:50;;;;;;;3.45;0.63;;;;;;;22.51;37.70;100204.16;5006167;28;20184;-68
2022/06/07 09:35:39;;;;;;;1.45;0.50;;;;;;;23.16;35.98;100205.59;5003637;28;20056;-67
2022/06/07 09:38:15;;;;;;;0.60;0.40;;;;;;;23.82;34.76;100205.03;5005733;28;20640;-66
2022/06/07 09:40:54;;;;;;;1.65;0.40;;;;;;;24.18;34.09;100197.59;5005048;28;20540;-67
2022/06/07 09:43:28;;;;;;;1.17;0.50;;;;;;;23.76;34.19;100198.44;5016281;28;20549;-66
2022/06/07 09:46:00;;;;;;;1.77;0.73;;;;;;;23.89;34.47;100189.03;5009407;28;20475;-70
2022/06/07 09:48:37;;;;;;;2.55;0.57;;;;;;;24.42;33.45;100192.25;5005407;28;20045;-67
2022/06/07 09:51:07;;;;;;;3.70;0.73;;;;;;;24.72;32.84;100190.78;5001776;28;20828;-67
2022/06/07 09:53:41;;;;;;;2.28;0.55;;;;;;;24.92;32.55;100174.22;5004932;28;20046;-68
2022/06/07 09:56:31;;;;;;;3.65;0.70;;;;;;;24.64;31.82;100161.00;5005194;28;20498;-66
2022/06/07 09:59:16;;;;;;;2.22;0.60;;;;;;;23.91;33.93;100198.69;5002257;28;20079;-66
2022/06/07 10:01:58;;;;;;;4.57;0.60;;;;;;;23.58;34.44;100175.19;5004102;28;20045;-67
2022/06/07 10:04:40;;;;;;;1.45;0.50;;;;;;;22.88;35.48;100177.88;5001827;28;20065;-68
2022/06/07 10:07:31;;;;;;;1.00;0.57;;;;;;;22.32;37.48;100197.91;5010774;28;20085;-67
2022/06/07 10:10:25;;;;;;;1.23;0.50;;;;;;;22.35;37.31;100189.47;5007001;28;20107;-65
2022/06/07 10:13:16;;;;;;;3.58;0.60;;;;;;;22.66;37.47;100181.88;5023220;28;20060;-66
2022/06/07 10:15:54;;;;;;;0.52;0.40;;;;;;;22.76;36.35;100187.19;5016297;28;20069;-67
2022/06/07 10:18:28;;;;;;;4.55;0.60;;;;;;;22.73;36.68;100184.78;5020715;28;20049;-67
2022/06/07 10:21:13;;;;;;;4.05;0.85;;;;;;;22.85;36.70;100182.72;5020126;28;20144;-67
2022/06/07 10:24:01;;;;;;;4.78;0.70;;;;;;;23.01;36.81;100181.00;5017928;28;20164;-67
2022/06/07 10:26:45;;;;;;;3.17;0.63;;;;;;;23.22;36.12;100180.66;5020417;28;20060;-68
2022/06/07 10:29:36;;;;;;;0.73;0.57;;;;;;;22.94;36.66;100169.16;5017810;28;20415;-67
2022/06/07 10:32:17;;;;;;;3.25;0.70;;;;;;;22.98;36.79;100170.53;4998209;28;20085;-67
2022/06/07 10:34:52;;;;;;;2.58;0.80;;;;;;;23.06;37.15;100164.34;5017508;28;20148;-68
2022/06/07 10:38:01;;;;;;;2.58;0.60;;;;;;;23.05;36.61;100162.66;5020524;28;20054;-66
2022/06/07 10:40:52;;;;;;;0.80;0.50;;;;;;;22.61;37.56;100177.94;5023116;28;20068;-67
2022/06/07 10:43:25;;;;;;;1.88;0.60;;;;;;;22.61;37.91;100167.16;5024232;28;20065;-67
2022/06/07 10:45:54;;;;;;;7.90;1.70;;;;;;;22.75;37.95;100163.91;5019940;28;20056;-66
2022/06/07 10:48:32;;;;;;;4.25;0.95;;;;;;;23.17;37.07;100166.78;5027968;28;20057;-66
2022/06/07 10:54:14;;;;;;;15.02;1.83;;;;;;;23.68;36.92;100162.38;5017686;28;20049;-67
2022/06/07 10:56:47;;;;;;;3.70;1.05;;;;;;;24.19;35.96;100152.44;5022316;28;20294;-67
2022/06/07 10:59:22;;;;;;;6.65;1.17;;;;;;;24.27;36.33;100161.44;5024811;28;20057;-68
2022/06/07 11:02:01;;;;;;;3.78;0.60;;;;;;;24.17;36.03;100158.00;5021426;28;20488;-66
2022/06/07 11:10:32;;;;;;;1.98;0.60;;;;;;;23.41;38.03;100145.34;5015068;28;20050;-66
2022/06/07 11:13:11;;;;;;;2.03;0.75;;;;;;;23.61;37.78;100153.25;5022306;28;20068;-66
2022/06/07 11:15:44;;;;;;;3.17;0.65;;;;;;;23.53;37.22;100158.59;5020891;28;20053;-66
2022/06/07 11:18:19;;;;;;;1.58;0.82;;;;;;;23.55;37.62;100149.31;5022547;28;20135;-66
2022/06/07 11:21:11;;;;;;;2.15;0.88;;;;;;;23.91;36.63;100147.28;5021463;28;20092;-65
2022/06/07 11:24:05;;;;;;;3.35;0.70;;;;;;;24.19;35.77;100149.72;5021745;28;20041;-66
2022/06/07 11:26:38;;;;;;;1.88;0.60;;;;;;;24.23;34.75;100137.59;5022140;28;20473;-66
2022/06/07 11:29:09;;;;;;;1.77;0.52;;;;;;;24.28;33.66;100136.09;5022392;28;20685;-68
2022/06/07 11:31:41;;;;;;;1.20;0.55;;;;;;;24.13;33.97;100146.66;5018788;28;20076;-68
2022/06/07 11:34:23;;;;;;;2.13;0.60;;;;;;;24.09;34.95;100134.47;5014145;28;20049;-67
2022/06/07 11:37:21;;;;;;;1.80;0.40;;;;;;;23.99;33.22;100139.19;5020722;28;20516;-66
2022/06/07 11:39:56;;;;;;;2.40;0.65;;;;;;;24.38;33.48;100119.72;5027500;28;20057;-67
2022/06/07 11:42:34;;;;;;;0.88;0.45;;;;;;;24.13;33.50;100135.84;5049325;28;20045;-67
2022/06/07 11:45:36;;;;;;;2.80;0.68;;;;;;;23.95;34.28;100143.22;5046170;28;20107;-68
2022/06/07 11:48:14;;;;;;;1.63;0.50;;;;;;;23.97;35.20;100135.81;5004427;28;20554;-67
2022/06/07 11:50:56;;;;;;;1.85;0.65;;;;;;;24.04;35.75;100131.44;5048150;28;20102;-67
2022/06/07 11:53:30;;;;;;;1.67;0.60;;;;;;;23.50;36.93;100137.25;5046327;28;20049;-68
2022/06/07 11:56:18;;;;;;;3.30;0.43;;;;;;;23.53;36.78;100131.56;5041958;28;20059;-67
2022/06/07 11:58:54;;;;;;;3.72;0.80;;;;;;;23.58;36.83;100127.38;5046671;28;20076;-66
2022/06/07 12:01:36;;;;;;;2.67;0.47;;;;;;;23.46;34.38;100123.22;5047324;28;20077;-69
2022/06/07 12:04:31;;;;;;;0.82;0.35;;;;;;;23.37;34.56;100124.19;5047046;28;20041;-66